Meteo Giornale » Osservazioni meteo Italia » Falconara

ore: 12:07 - Osservazioni Meteo Falconara
Lat. 43° 37' N Lon. 13° 22' E Alt. 12 metri s.l.m.

coperto_temporali Europe/Rome

25 °C

Temporale

Temp. 24 Ore

21 °C

34 °C

Nord

20.3 Km/h

Dew point 17 °C

Umidità 61 %

Visibilità  10 Km

Il sole sorge alle ore 05:47

Il sole tramonta alle ore 20:38

Data e Ora Cielo e Fenomeni T °C DP °C Um. % Pres. hPa Vis. km Vento km/h
Oggi h: 12:07 coperto_temporali Temporale 25 17 61 1004 10 N 20.3
Oggi h: 11:50 nuvoloso Nuvoloso 27 17 54 1004 10 N 20.3
Oggi h: 10:50 nuvoloso Nuvoloso 26 18 61 1004 10 N/NO 16.7
Oggi h: 09:50 nuvoloso Nuvoloso 26 18 61 1004 10 NO 16.7
Oggi h: 08:50 nuvoloso Nuvoloso 25 18 65 1004 10 NO 14.8
Oggi h: 07:50 poco_nuvoloso Poco Nuvoloso 24 18 69 1004 10 NO 9.3
Oggi h: 06:50 nuvoloso Nuvoloso 21 16 73 1004 10 SO 7.4
Oggi h: 05:50 nuvoloso Nuvoloso 22 16 68 1004 10 N 5.5
Oggi h: 04:50 sereno Sereno 22 15 64 1003 10 O 11.1
Oggi h: 03:50 sereno Sereno 21 15 68 1003 10 O/SO 9.3
Oggi h: 02:50 sereno Sereno 21 15 68 1003 10 SO 11.1
Oggi h: 01:50 sereno Sereno 22 16 68 1004 10 N 3.7
Oggi h: 00:50 sereno Sereno 27 17 54 1003 10 SO 11.1
Ieri h: 23:50 sereno Sereno 23 19 78 1003 10 N 3.7
Ieri h: 22:50 sereno Sereno 23 19 78 1003 10 N 5.5
Ieri h: 21:50 sereno Sereno 24 18 69 1003 10 N 5.5
Ieri h: 20:50 nuvoloso Nuvoloso 25 18 65 1003 10 N 3.7
Ieri h: 19:50 poco_nuvoloso Poco Nuvoloso 24 19 73 1003 10 N 18.5
Ieri h: 18:50 nuvoloso Nuvoloso 30 14 37 1001 10 O/SO 22.2
Ieri h: 17:50 poco_nuvoloso Poco Nuvoloso 30 15 40 1002 10 O/SO 25.9
Ieri h: 16:50 poco_nuvoloso Poco Nuvoloso 32 14 33 1001 10 O/SO 24
Ieri h: 15:50 poco_nuvoloso Poco Nuvoloso 34 13 28 1002 10 SO 20.3
Ieri h: 14:50 poco_nuvoloso Poco Nuvoloso 34 13 28 1003 10 SO 18.5
Ieri h: 13:50 poco_nuvoloso Poco Nuvoloso 32 12 29 1004 10 S/SO 14.8
Ieri h: 12:50 nuvoloso Nuvoloso 33 11 26 1005 10 SO 13